sensor_id;sensor_type;location;lat;lon;timestamp;pressure;altitude;pressure_sealevel;temperature;humidity
18795;BME280;29610;49.022;12.114;2023-02-24T00:02:01;97256.63;;;8.98;100.00
18795;BME280;29610;49.022;12.114;2023-02-24T00:04:35;97254.91;;;8.59;100.00
18795;BME280;29610;49.022;12.114;2023-02-24T00:07:07;97248.53;;;8.72;100.00
18795;BME280;29610;49.022;12.114;2023-02-24T00:09:38;97248.84;;;8.79;100.00
18795;BME280;29610;49.022;12.114;2023-02-24T00:12:11;97241.34;;;8.76;100.00
18795;BME280;29610;49.022;12.114;2023-02-24T00:14:43;97240.72;;;8.79;100.00
18795;BME280;29610;49.022;12.114;2023-02-24T00:17:12;97238.78;;;8.88;100.00
18795;BME280;29610;49.022;12.114;2023-02-24T00:19:41;97230.69;;;8.62;100.00
18795;BME280;29610;49.022;12.114;2023-02-24T00:22:10;97232.75;;;8.65;100.00
18795;BME280;29610;49.022;12.114;2023-02-24T00:24:39;97223.84;;;8.56;100.00
18795;BME280;29610;49.022;12.114;2023-02-24T00:27:09;97228.28;;;8.69;100.00
18795;BME280;29610;49.022;12.114;2023-02-24T00:29:39;97220.78;;;8.75;100.00
18795;BME280;29610;49.022;12.114;2023-02-24T00:32:09;97220.16;;;8.78;100.00
18795;BME280;29610;49.022;12.114;2023-02-24T00:34:40;97222.06;;;8.77;100.00
18795;BME280;29610;49.022;12.114;2023-02-24T00:37:09;97217.91;;;8.71;100.00
18795;BME280;29610;49.022;12.114;2023-02-24T00:39:38;97225.59;;;8.69;100.00
18795;BME280;29610;49.022;12.114;2023-02-24T00:42:11;97216.34;;;8.70;100.00
18795;BME280;29610;49.022;12.114;2023-02-24T00:44:44;97216.66;;;8.69;100.00
18795;BME280;29610;49.022;12.114;2023-02-24T00:47:16;97213.78;;;8.74;100.00
18795;BME280;29610;49.022;12.114;2023-02-24T00:49:45;97211.84;;;8.74;100.00
18795;BME280;29610;49.022;12.114;2023-02-24T00:52:16;97224.09;;;8.89;100.00
18795;BME280;29610;49.022;12.114;2023-02-24T00:54:48;97217.88;;;9.06;100.00
18795;BME280;29610;49.022;12.114;2023-02-24T00:57:18;97225.84;;;9.11;100.00
18795;BME280;29610;49.022;12.114;2023-02-24T00:59:49;97212.56;;;9.18;100.00
18795;BME280;29610;49.022;12.114;2023-02-24T01:02:19;97205.28;;;9.01;100.00
18795;BME280;29610;49.022;12.114;2023-02-24T01:04:47;97193.22;;;8.90;100.00
18795;BME280;29610;49.022;12.114;2023-02-24T01:07:17;97183.78;;;8.87;100.00
18795;BME280;29610;49.022;12.114;2023-02-24T01:09:49;97182.84;;;8.83;100.00
18795;BME280;29610;49.022;12.114;2023-02-24T01:12:19;97188.13;;;8.71;100.00
18795;BME280;29610;49.022;12.114;2023-02-24T01:15:06;97184.97;;;8.35;100.00
18795;BME280;29610;49.022;12.114;2023-02-24T01:17:40;97195.16;;;8.47;100.00
18795;BME280;29610;49.022;12.114;2023-02-24T01:20:11;97185.94;;;8.56;100.00
18795;BME280;29610;49.022;12.114;2023-02-24T01:22:49;97189.25;;;8.70;100.00
18795;BME280;29610;49.022;12.114;2023-02-24T01:25:19;97182.22;;;8.86;100.00
18795;BME280;29610;49.022;12.114;2023-02-24T01:27:49;97179.28;;;9.09;100.00
18795;BME280;29610;49.022;12.114;2023-02-24T01:30:20;97185.66;;;9.13;100.00
18795;BME280;29610;49.022;12.114;2023-02-24T01:32:49;97177.38;;;9.01;100.00
18795;BME280;29610;49.022;12.114;2023-02-24T01:35:18;97173.59;;;8.93;100.00
18795;BME280;29610;49.022;12.114;2023-02-24T01:37:47;97172.19;;;8.87;100.00
18795;BME280;29610;49.022;12.114;2023-02-24T01:40:16;97176.59;;;9.00;100.00
18795;BME280;29610;49.022;12.114;2023-02-24T01:42:49;97178.34;;;8.96;100.00
18795;BME280;29610;49.022;12.114;2023-02-24T01:45:25;97176.94;;;8.90;100.00
18795;BME280;29610;49.022;12.114;2023-02-24T01:48:00;97175.16;;;8.94;100.00
18795;BME280;29610;49.022;12.114;2023-02-24T01:50:35;97162.09;;;8.96;100.00
18795;BME280;29610;49.022;12.114;2023-02-24T01:53:06;97155.84;;;9.13;100.00
18795;BME280;29610;49.022;12.114;2023-02-24T01:55:43;97145.94;;;9.17;100.00
18795;BME280;29610;49.022;12.114;2023-02-24T01:58:22;97150.13;;;8.97;100.00
18795;BME280;29610;49.022;12.114;2023-02-24T02:00:54;97147.41;;;9.06;100.00
18795;BME280;29610;49.022;12.114;2023-02-24T02:03:27;97148.69;;;9.00;100.00
18795;BME280;29610;49.022;12.114;2023-02-24T02:06:01;97145.06;;;8.87;100.00
18795;BME280;29610;49.022;12.114;2023-02-24T02:08:31;97142.97;;;8.93;100.00
18795;BME280;29610;49.022;12.114;2023-02-24T02:11:06;97136.13;;;8.95;100.00
18795;BME280;29610;49.022;12.114;2023-02-24T02:13:42;97144.09;;;8.92;100.00
18795;BME280;29610;49.022;12.114;2023-02-24T02:16:39;97135.00;;;8.96;100.00
18795;BME280;29610;49.022;12.114;2023-02-24T02:26:36;97126.78;;;8.75;100.00
18795;BME280;29610;49.022;12.114;2023-02-24T02:29:43;97131.69;;;8.82;100.00
18795;BME280;29610;49.022;12.114;2023-02-24T02:33:07;97129.13;;;8.85;100.00
18795;BME280;29610;49.022;12.114;2023-02-24T02:35:53;97123.34;;;8.96;100.00
18795;BME280;29610;49.022;12.114;2023-02-24T02:38:34;97125.53;;;9.11;100.00
18795;BME280;29610;49.022;12.114;2023-02-24T02:41:15;97122.69;;;9.07;100.00
18795;BME280;29610;49.022;12.114;2023-02-24T02:43:57;97116.63;;;9.02;100.00
18795;BME280;29610;49.022;12.114;2023-02-24T02:46:35;97115.88;;;8.93;100.00
18795;BME280;29610;49.022;12.114;2023-02-24T02:49:14;97116.03;;;8.96;100.00
18795;BME280;29610;49.022;12.114;2023-02-24T02:51:51;97116.06;;;8.87;100.00
18795;BME280;29610;49.022;12.114;2023-02-24T02:54:28;97112.41;;;8.83;100.00
18795;BME280;29610;49.022;12.114;2023-02-24T02:57:03;97112.41;;;8.83;100.00
18795;BME280;29610;49.022;12.114;2023-02-24T02:59:44;97104.78;;;8.77;100.00
18795;BME280;29610;49.022;12.114;2023-02-24T03:02:20;97103.38;;;8.71;100.00
18795;BME280;29610;49.022;12.114;2023-02-24T03:04:58;97097.63;;;8.72;100.00
18795;BME280;29610;49.022;12.114;2023-02-24T03:07:37;97105.22;;;8.87;100.00
18795;BME280;29610;49.022;12.114;2023-02-24T03:10:14;97101.53;;;8.92;100.00
18795;BME280;29610;49.022;12.114;2023-02-24T03:12:51;97093.19;;;9.06;100.00
18795;BME280;29610;49.022;12.114;2023-02-24T03:15:25;97097.91;;;8.79;100.00
18795;BME280;29610;49.022;12.114;2023-02-24T03:18:03;97098.38;;;8.90;100.00
18795;BME280;29610;49.022;12.114;2023-02-24T03:20:41;97096.91;;;8.93;100.00
18795;BME280;29610;49.022;12.114;2023-02-24T03:23:18;97089.09;;;8.91;100.00
18795;BME280;29610;49.022;12.114;2023-02-24T03:25:56;97083.66;;;9.00;100.00
18795;BME280;29610;49.022;12.114;2023-02-24T03:28:35;97076.38;;;8.92;100.00
18795;BME280;29610;49.022;12.114;2023-02-24T03:31:13;97082.84;;;8.99;100.00
18795;BME280;29610;49.022;12.114;2023-02-24T03:33:56;97088.59;;;8.98;100.00
18795;BME280;29610;49.022;12.114;2023-02-24T03:36:31;97085.16;;;8.88;100.00
18795;BME280;29610;49.022;12.114;2023-02-24T03:39:02;97085.16;;;8.88;100.00
18795;BME280;29610;49.022;12.114;2023-02-24T03:41:43;97096.09;;;8.92;100.00
18795;BME280;29610;49.022;12.114;2023-02-24T03:44:13;97090.88;;;8.87;100.00
18795;BME280;29610;49.022;12.114;2023-02-24T03:46:42;97091.97;;;8.95;100.00
18795;BME280;29610;49.022;12.114;2023-02-24T03:49:14;97083.78;;;9.03;100.00
18795;BME280;29610;49.022;12.114;2023-02-24T03:52:00;97081.41;;;9.02;100.00
18795;BME280;29610;49.022;12.114;2023-02-24T03:55:07;97076.97;;;8.97;100.00
18795;BME280;29610;49.022;12.114;2023-02-24T03:57:54;97076.19;;;8.97;100.00
18795;BME280;29610;49.022;12.114;2023-02-24T04:00:40;97079.53;;;8.93;100.00
18795;BME280;29610;49.022;12.114;2023-02-24T04:03:24;97079.41;;;8.90;100.00
18795;BME280;29610;49.022;12.114;2023-02-24T04:06:10;97085.16;;;8.88;100.00
18795;BME280;29610;49.022;12.114;2023-02-24T04:08:49;97091.50;;;8.93;100.00
18795;BME280;29610;49.022;12.114;2023-02-24T04:11:27;97093.22;;;8.97;100.00
18795;BME280;29610;49.022;12.114;2023-02-24T04:14:04;97084.09;;;9.02;100.00
18795;BME280;29610;49.022;12.114;2023-02-24T04:16:40;97066.97;;;9.18;100.00
18795;BME280;29610;49.022;12.114;2023-02-24T04:19:17;97060.75;;;9.18;100.00
18795;BME280;29610;49.022;12.114;2023-02-24T04:21:49;97051.19;;;9.20;100.00
18795;BME280;29610;49.022;12.114;2023-02-24T04:24:29;97056.31;;;9.13;100.00
18795;BME280;29610;49.022;12.114;2023-02-24T04:27:04;97057.97;;;9.06;100.00
18795;BME280;29610;49.022;12.114;2023-02-24T04:29:42;97057.13;;;9.14;100.00
18795;BME280;29610;49.022;12.114;2023-02-24T04:32:21;97059.47;;;8.86;100.00
18795;BME280;29610;49.022;12.114;2023-02-24T04:34:51;97063.56;;;8.63;100.00
18795;BME280;29610;49.022;12.114;2023-02-24T04:37:20;97062.84;;;8.74;100.00
18795;BME280;29610;49.022;12.114;2023-02-24T04:39:49;97057.41;;;8.92;100.00
18795;BME280;29610;49.022;12.114;2023-02-24T04:42:27;97050.25;;;8.87;100.00
18795;BME280;29610;49.022;12.114;2023-02-24T04:44:56;97043.13;;;8.74;100.00
18795;BME280;29610;49.022;12.114;2023-02-24T04:47:25;97038.34;;;8.71;100.00
18795;BME280;29610;49.022;12.114;2023-02-24T04:49:55;97039.13;;;8.71;100.00
18795;BME280;29610;49.022;12.114;2023-02-24T04:52:23;97031.19;;;8.66;100.00
18795;BME280;29610;49.022;12.114;2023-02-24T04:54:52;97041.06;;;8.71;100.00
18795;BME280;29610;49.022;12.114;2023-02-24T04:57:20;97023.84;;;8.75;100.00
18795;BME280;29610;49.022;12.114;2023-02-24T04:59:50;97024.94;;;8.74;100.00
18795;BME280;29610;49.022;12.114;2023-02-24T05:02:20;97027.38;;;8.67;100.00
18795;BME280;29610;49.022;12.114;2023-02-24T05:04:48;97026.25;;;8.68;100.00
18795;BME280;29610;49.022;12.114;2023-02-24T05:07:17;97026.53;;;8.75;100.00
18795;BME280;29610;49.022;12.114;2023-02-24T05:09:46;97024.50;;;8.72;100.00
18795;BME280;29610;49.022;12.114;2023-02-24T05:12:15;97026.63;;;8.87;100.00
18795;BME280;29610;49.022;12.114;2023-02-24T05:14:43;97019.50;;;8.83;100.00
18795;BME280;29610;49.022;12.114;2023-02-24T05:17:17;97017.09;;;8.81;100.00
18795;BME280;29610;49.022;12.114;2023-02-24T05:19:46;97011.69;;;8.81;100.00
18795;BME280;29610;49.022;12.114;2023-02-24T05:22:32;97009.78;;;8.82;100.00
18795;BME280;29610;49.022;12.114;2023-02-24T05:25:01;97010.78;;;8.77;100.00
18795;BME280;29610;49.022;12.114;2023-02-24T05:27:30;97013.41;;;8.86;100.00
18795;BME280;29610;49.022;12.114;2023-02-24T05:30:07;97008.63;;;8.92;100.00
18795;BME280;29610;49.022;12.114;2023-02-24T05:32:37;97008.31;;;8.84;100.00
18795;BME280;29610;49.022;12.114;2023-02-24T05:35:07;97012.59;;;8.94;100.00
18795;BME280;29610;49.022;12.114;2023-02-24T05:37:37;97008.22;;;9.02;100.00
18795;BME280;29610;49.022;12.114;2023-02-24T05:40:10;96999.03;;;8.94;100.00
18795;BME280;29610;49.022;12.114;2023-02-24T05:42:41;96989.91;;;8.99;100.00
18795;BME280;29610;49.022;12.114;2023-02-24T05:45:11;96981.56;;;9.12;100.00
18795;BME280;29610;49.022;12.114;2023-02-24T05:47:41;96975.59;;;8.98;100.00
18795;BME280;29610;49.022;12.114;2023-02-24T05:50:12;96958.97;;;8.79;100.00
18795;BME280;29610;49.022;12.114;2023-02-24T05:52:42;96958.84;;;8.67;100.00
18795;BME280;29610;49.022;12.114;2023-02-24T05:55:12;96954.66;;;8.78;100.00
18795;BME280;29610;49.022;12.114;2023-02-24T05:57:42;96957.03;;;8.79;100.00
18795;BME280;29610;49.022;12.114;2023-02-24T06:00:12;96954.50;;;8.74;100.00
18795;BME280;29610;49.022;12.114;2023-02-24T06:02:43;96963.28;;;8.71;100.00
18795;BME280;29610;49.022;12.114;2023-02-24T06:05:17;96975.75;;;8.64;100.00
18795;BME280;29610;49.022;12.114;2023-02-24T06:07:57;96980.16;;;8.77;100.00
18795;BME280;29610;49.022;12.114;2023-02-24T06:10:33;96974.97;;;8.93;100.00
18795;BME280;29610;49.022;12.114;2023-02-24T06:13:02;96972.66;;;9.03;100.00
18795;BME280;29610;49.022;12.114;2023-02-24T06:15:33;96978.88;;;9.04;100.00
18795;BME280;29610;49.022;12.114;2023-02-24T06:18:03;96972.88;;;8.98;100.00
18795;BME280;29610;49.022;12.114;2023-02-24T06:20:33;96975.25;;;9.00;100.00
18795;BME280;29610;49.022;12.114;2023-02-24T06:23:03;96969.22;;;8.94;100.00
18795;BME280;29610;49.022;12.114;2023-02-24T06:25:31;96975.44;;;8.95;100.00
18795;BME280;29610;49.022;12.114;2023-02-24T06:28:00;96982.44;;;8.96;100.00
18795;BME280;29610;49.022;12.114;2023-02-24T06:30:28;96966.69;;;8.89;100.00
18795;BME280;29610;49.022;12.114;2023-02-24T06:32:59;96974.00;;;8.97;100.00
18795;BME280;29610;49.022;12.114;2023-02-24T06:35:29;96963.75;;;9.03;100.00
18795;BME280;29610;49.022;12.114;2023-02-24T06:37:59;96960.25;;;9.02;100.00
18795;BME280;29610;49.022;12.114;2023-02-24T06:40:27;96956.16;;;8.96;100.00
18795;BME280;29610;49.022;12.114;2023-02-24T06:42:57;96955.81;;;8.98;100.00
18795;BME280;29610;49.022;12.114;2023-02-24T06:45:26;96953.28;;;8.93;100.00
18795;BME280;29610;49.022;12.114;2023-02-24T06:47:54;96964.69;;;9.07;100.00
18795;BME280;29610;49.022;12.114;2023-02-24T06:50:24;96960.88;;;9.08;100.00
18795;BME280;29610;49.022;12.114;2023-02-24T06:52:55;96955.88;;;9.10;100.00
18795;BME280;29610;49.022;12.114;2023-02-24T06:55:27;96961.78;;;9.12;100.00
18795;BME280;29610;49.022;12.114;2023-02-24T06:57:58;96961.66;;;9.29;100.00
18795;BME280;29610;49.022;12.114;2023-02-24T07:00:33;96968.69;;;9.30;100.00
18795;BME280;29610;49.022;12.114;2023-02-24T07:03:08;96963.59;;;9.28;100.00
18795;BME280;29610;49.022;12.114;2023-02-24T07:05:46;96957.75;;;9.38;100.00
18795;BME280;29610;49.022;12.114;2023-02-24T07:08:21;96952.56;;;9.33;100.00
18795;BME280;29610;49.022;12.114;2023-02-24T07:10:54;96952.13;;;9.43;100.00
18795;BME280;29610;49.022;12.114;2023-02-24T07:13:25;96957.84;;;9.50;100.00
18795;BME280;29610;49.022;12.114;2023-02-24T07:15:58;96947.69;;;9.59;100.00
18795;BME280;29610;49.022;12.114;2023-02-24T07:18:33;96946.63;;;9.72;100.00
18795;BME280;29610;49.022;12.114;2023-02-24T07:21:03;96948.88;;;9.70;100.00
18795;BME280;29610;49.022;12.114;2023-02-24T07:23:41;96943.44;;;9.70;100.00
18795;BME280;29610;49.022;12.114;2023-02-24T07:26:12;96945.38;;;9.70;100.00
18795;BME280;29610;49.022;12.114;2023-02-24T07:28:44;96942.47;;;9.75;100.00
18795;BME280;29610;49.022;12.114;2023-02-24T07:31:17;96940.84;;;9.74;100.00
18795;BME280;29610;49.022;12.114;2023-02-24T07:33:48;96941.00;;;9.77;100.00
18795;BME280;29610;49.022;12.114;2023-02-24T07:36:19;96934.84;;;10.01;100.00
18795;BME280;29610;49.022;12.114;2023-02-24T07:38:53;96937.66;;;9.92;100.00
18795;BME280;29610;49.022;12.114;2023-02-24T07:41:24;96939.94;;;10.02;100.00
18795;BME280;29610;49.022;12.114;2023-02-24T07:43:54;96933.31;;;10.12;100.00
18795;BME280;29610;49.022;12.114;2023-02-24T07:46:28;96933.53;;;9.74;100.00
18795;BME280;29610;49.022;12.114;2023-02-24T07:48:57;96936.38;;;10.10;100.00
18795;BME280;29610;49.022;12.114;2023-02-24T07:51:27;96932.06;;;10.09;100.00
18795;BME280;29610;49.022;12.114;2023-02-24T07:54:00;96915.78;;;10.21;100.00
18795;BME280;29610;49.022;12.114;2023-02-24T07:56:30;96912.31;;;10.33;100.00
18795;BME280;29610;49.022;12.114;2023-02-24T07:59:02;96922.91;;;10.14;100.00
18795;BME280;29610;49.022;12.114;2023-02-24T08:01:36;96921.78;;;10.15;100.00
18795;BME280;29610;49.022;12.114;2023-02-24T08:04:09;96925.00;;;10.29;100.00
18795;BME280;29610;49.022;12.114;2023-02-24T08:06:40;96924.19;;;10.41;100.00
18795;BME280;29610;49.022;12.114;2023-02-24T08:09:17;96920.13;;;10.59;100.00
18795;BME280;29610;49.022;12.114;2023-02-24T08:11:49;96921.47;;;10.41;100.00
18795;BME280;29610;49.022;12.114;2023-02-24T08:14:21;96914.00;;;10.38;100.00
18795;BME280;29610;49.022;12.114;2023-02-24T08:16:54;96908.47;;;10.46;100.00
18795;BME280;29610;49.022;12.114;2023-02-24T08:19:28;96903.50;;;10.72;100.00
18795;BME280;29610;49.022;12.114;2023-02-24T08:22:00;96907.78;;;10.85;100.00
18795;BME280;29610;49.022;12.114;2023-02-24T08:24:49;96909.69;;;10.97;100.00
18795;BME280;29610;49.022;12.114;2023-02-24T08:27:22;96905.41;;;10.96;100.00
18795;BME280;29610;49.022;12.114;2023-02-24T08:29:53;96896.81;;;10.82;100.00
18795;BME280;29610;49.022;12.114;2023-02-24T08:32:33;96899.72;;;11.01;100.00
18795;BME280;29610;49.022;12.114;2023-02-24T08:35:07;96896.09;;;10.97;100.00
18795;BME280;29610;49.022;12.114;2023-02-24T08:37:43;96888.31;;;10.83;100.00
18795;BME280;29610;49.022;12.114;2023-02-24T08:40:18;96884.91;;;10.86;100.00
18795;BME280;29610;49.022;12.114;2023-02-24T08:43:07;96879.66;;;10.93;100.00
18795;BME280;29610;49.022;12.114;2023-02-24T08:45:49;96876.19;;;11.32;100.00
18795;BME280;29610;49.022;12.114;2023-02-24T08:48:21;96871.53;;;11.33;100.00
18795;BME280;29610;49.022;12.114;2023-02-24T08:51:02;96870.69;;;11.44;100.00
18795;BME280;29610;49.022;12.114;2023-02-24T08:53:32;96871.44;;;11.57;100.00
18795;BME280;29610;49.022;12.114;2023-02-24T08:56:03;96873.53;;;11.75;100.00
18795;BME280;29610;49.022;12.114;2023-02-24T08:58:37;96863.81;;;11.90;100.00
18795;BME280;29610;49.022;12.114;2023-02-24T09:01:17;96869.03;;;11.67;100.00
18795;BME280;29610;49.022;12.114;2023-02-24T09:03:50;96859.97;;;12.07;100.00
18795;BME280;29610;49.022;12.114;2023-02-24T09:06:23;96855.50;;;12.14;100.00
18795;BME280;29610;49.022;12.114;2023-02-24T09:08:55;96848.81;;;12.27;100.00
18795;BME280;29610;49.022;12.114;2023-02-24T09:11:44;96847.06;;;12.35;100.00
18795;BME280;29610;49.022;12.114;2023-02-24T09:14:16;96846.50;;;12.60;100.00
18795;BME280;29610;49.022;12.114;2023-02-24T09:16:58;96848.97;;;12.03;100.00
18795;BME280;29610;49.022;12.114;2023-02-24T09:19:38;96850.88;;;11.71;100.00
18795;BME280;29610;49.022;12.114;2023-02-24T09:22:31;96843.53;;;11.88;100.00
18795;BME280;29610;49.022;12.114;2023-02-24T09:25:11;96840.78;;;11.88;100.00
18795;BME280;29610;49.022;12.114;2023-02-24T09:27:52;96846.78;;;11.93;100.00
18795;BME280;29610;49.022;12.114;2023-02-24T09:30:26;96853.09;;;12.13;100.00
18795;BME280;29610;49.022;12.114;2023-02-24T09:33:08;96847.84;;;12.51;100.00
18795;BME280;29610;49.022;12.114;2023-02-24T09:35:48;96832.44;;;12.58;100.00
18795;BME280;29610;49.022;12.114;2023-02-24T09:38:19;96834.28;;;12.54;100.00
18795;BME280;29610;49.022;12.114;2023-02-24T09:41:25;96832.03;;;12.75;100.00
18795;BME280;29610;49.022;12.114;2023-02-24T09:44:13;96829.38;;;12.44;100.00
18795;BME280;29610;49.022;12.114;2023-02-24T09:46:50;96831.47;;;12.66;100.00
18795;BME280;29610;49.022;12.114;2023-02-24T09:49:26;96822.44;;;12.81;100.00
18795;BME280;29610;49.022;12.114;2023-02-24T09:52:10;96821.09;;;13.06;100.00
18795;BME280;29610;49.022;12.114;2023-02-24T09:54:47;96819.28;;;13.14;100.00
18795;BME280;29610;49.022;12.114;2023-02-24T09:57:44;96814.09;;;13.28;100.00
18795;BME280;29610;49.022;12.114;2023-02-24T10:01:05;96799.34;;;13.29;100.00
18795;BME280;29610;49.022;12.114;2023-02-24T10:03:55;96797.84;;;12.97;100.00
18795;BME280;29610;49.022;12.114;2023-02-24T10:06:49;96798.63;;;13.13;100.00
18795;BME280;29610;49.022;12.114;2023-02-24T10:09:23;96802.41;;;13.08;100.00
18795;BME280;29610;49.022;12.114;2023-02-24T10:11:59;96795.50;;;12.95;100.00
18795;BME280;29610;49.022;12.114;2023-02-24T10:14:38;96793.81;;;12.91;100.00
18795;BME280;29610;49.022;12.114;2023-02-24T10:17:23;96791.66;;;12.81;100.00
18795;BME280;29610;49.022;12.114;2023-02-24T10:20:10;96799.75;;;12.77;100.00
18795;BME280;29610;49.022;12.114;2023-02-24T10:23:00;96781.47;;;12.43;100.00
18795;BME280;29610;49.022;12.114;2023-02-24T10:25:42;96774.50;;;12.61;100.00
18795;BME280;29610;49.022;12.114;2023-02-24T10:28:30;96769.41;;;12.60;100.00
18795;BME280;29610;49.022;12.114;2023-02-24T10:31:09;96767.81;;;12.59;100.00
18795;BME280;29610;49.022;12.114;2023-02-24T10:33:59;96764.09;;;13.01;100.00
18795;BME280;29610;49.022;12.114;2023-02-24T10:36:34;96763.06;;;12.90;100.00
18795;BME280;29610;49.022;12.114;2023-02-24T10:39:14;96758.34;;;13.06;100.00
18795;BME280;29610;49.022;12.114;2023-02-24T10:41:45;96759.75;;;13.19;100.00
18795;BME280;29610;49.022;12.114;2023-02-24T10:44:20;96755.38;;;13.15;100.00
18795;BME280;29610;49.022;12.114;2023-02-24T10:47:02;96747.19;;;13.34;100.00
18795;BME280;29610;49.022;12.114;2023-02-24T10:49:42;96744.91;;;13.17;100.00
18795;BME280;29610;49.022;12.114;2023-02-24T10:52:29;96739.25;;;13.26;100.00
18795;BME280;29610;49.022;12.114;2023-02-24T10:55:25;96730.84;;;13.57;100.00
18795;BME280;29610;49.022;12.114;2023-02-24T10:58:26;96734.88;;;13.44;100.00
18795;BME280;29610;49.022;12.114;2023-02-24T11:01:12;96714.78;;;13.33;100.00
18795;BME280;29610;49.022;12.114;2023-02-24T11:03:54;96720.13;;;13.26;100.00
18795;BME280;29610;49.022;12.114;2023-02-24T11:07:01;96720.56;;;13.50;100.00
18795;BME280;29610;49.022;12.114;2023-02-24T11:09:39;96710.78;;;13.27;100.00
18795;BME280;29610;49.022;12.114;2023-02-24T11:12:21;96708.69;;;13.39;100.00
18795;BME280;29610;49.022;12.114;2023-02-24T11:15:20;96699.69;;;13.16;100.00
18795;BME280;29610;49.022;12.114;2023-02-24T11:18:17;96694.56;;;13.34;100.00
18795;BME280;29610;49.022;12.114;2023-02-24T11:20:51;96687.47;;;13.52;100.00
18795;BME280;29610;49.022;12.114;2023-02-24T11:23:28;96676.50;;;13.48;100.00
18795;BME280;29610;49.022;12.114;2023-02-24T11:26:01;96674.31;;;13.35;100.00
18795;BME280;29610;49.022;12.114;2023-02-24T11:34:56;96659.19;;;13.63;100.00
18795;BME280;29610;49.022;12.114;2023-02-24T11:37:38;96656.06;;;13.87;100.00
18795;BME280;29610;49.022;12.114;2023-02-24T11:40:17;96648.19;;;13.82;100.00
18795;BME280;29610;49.022;12.114;2023-02-24T11:42:53;96643.53;;;13.83;100.00
18795;BME280;29610;49.022;12.114;2023-02-24T11:45:32;96638.75;;;14.02;100.00
18795;BME280;29610;49.022;12.114;2023-02-24T11:48:13;96628.56;;;13.73;100.00
18795;BME280;29610;49.022;12.114;2023-02-24T11:50:55;96633.22;;;13.99;100.00
18795;BME280;29610;49.022;12.114;2023-02-24T11:53:35;96619.50;;;13.43;100.00
18795;BME280;29610;49.022;12.114;2023-02-24T11:56:13;96616.31;;;13.64;100.00
18795;BME280;29610;49.022;12.114;2023-02-24T11:58:50;96620.44;;;13.80;100.00
18795;BME280;29610;49.022;12.114;2023-02-24T12:01:28;96603.56;;;13.71;100.00
18795;BME280;29610;49.022;12.114;2023-02-24T12:04:17;96596.97;;;13.76;100.00
18795;BME280;29610;49.022;12.114;2023-02-24T12:06:55;96595.00;;;13.73;100.00
18795;BME280;29610;49.022;12.114;2023-02-24T12:09:30;96586.31;;;13.41;100.00
18795;BME280;29610;49.022;12.114;2023-02-24T12:12:11;96584.63;;;13.33;100.00
18795;BME280;29610;49.022;12.114;2023-02-24T12:14:50;96577.84;;;13.23;100.00
18795;BME280;29610;49.022;12.114;2023-02-24T12:17:30;96577.16;;;13.30;100.00
18795;BME280;29610;49.022;12.114;2023-02-24T12:20:04;96577.03;;;13.46;100.00
18795;BME280;29610;49.022;12.114;2023-02-24T12:22:43;96564.78;;;13.36;100.00
18795;BME280;29610;49.022;12.114;2023-02-24T12:25:14;96565.19;;;13.61;100.00
18795;BME280;29610;49.022;12.114;2023-02-24T12:28:04;96552.16;;;13.77;100.00
18795;BME280;29610;49.022;12.114;2023-02-24T12:30:55;96547.44;;;13.74;100.00
18795;BME280;29610;49.022;12.114;2023-02-24T12:33:43;96545.66;;;13.88;100.00
18795;BME280;29610;49.022;12.114;2023-02-24T12:39:27;96535.56;;;14.22;100.00
18795;BME280;29610;49.022;12.114;2023-02-24T12:42:11;96534.44;;;14.23;100.00
18795;BME280;29610;49.022;12.114;2023-02-24T12:44:53;96527.81;;;13.94;100.00
18795;BME280;29610;49.022;12.114;2023-02-24T12:47:41;96529.09;;;13.74;100.00
18795;BME280;29610;49.022;12.114;2023-02-24T12:50:28;96527.28;;;13.85;100.00
18795;BME280;29610;49.022;12.114;2023-02-24T12:53:09;96519.88;;;13.56;100.00
18795;BME280;29610;49.022;12.114;2023-02-24T12:55:52;96517.84;;;13.50;100.00
18795;BME280;29610;49.022;12.114;2023-02-24T12:58:27;96517.75;;;13.20;100.00
18795;BME280;29610;49.022;12.114;2023-02-24T13:01:14;96505.81;;;13.28;100.00
18795;BME280;29610;49.022;12.114;2023-02-24T13:04:13;96517.09;;;12.59;100.00
18795;BME280;29610;49.022;12.114;2023-02-24T13:06:58;96506.03;;;12.10;100.00
18795;BME280;29610;49.022;12.114;2023-02-24T13:09:40;96514.22;;;11.41;100.00
18795;BME280;29610;49.022;12.114;2023-02-24T13:12:17;96517.00;;;11.25;100.00
18795;BME280;29610;49.022;12.114;2023-02-24T13:14:53;96519.41;;;10.96;100.00
18795;BME280;29610;49.022;12.114;2023-02-24T13:17:25;96507.81;;;10.68;100.00
18795;BME280;29610;49.022;12.114;2023-02-24T13:19:55;96504.13;;;11.07;100.00
18795;BME280;29610;49.022;12.114;2023-02-24T13:22:28;96496.84;;;11.11;100.00
18795;BME280;29610;49.022;12.114;2023-02-24T13:25:13;96486.19;;;11.37;100.00
18795;BME280;29610;49.022;12.114;2023-02-24T13:27:56;96491.09;;;11.31;100.00
18795;BME280;29610;49.022;12.114;2023-02-24T13:30:35;96481.16;;;11.20;100.00
18795;BME280;29610;49.022;12.114;2023-02-24T13:33:22;96483.28;;;11.30;100.00
18795;BME280;29610;49.022;12.114;2023-02-24T13:36:12;96481.19;;;11.39;100.00
18795;BME280;29610;49.022;12.114;2023-02-24T13:38:44;96464.28;;;11.49;100.00
18795;BME280;29610;49.022;12.114;2023-02-24T13:41:34;96465.06;;;11.84;100.00
18795;BME280;29610;49.022;12.114;2023-02-24T13:44:24;96462.41;;;11.88;100.00
18795;BME280;29610;49.022;12.114;2023-02-24T13:50:21;96448.03;;;12.29;100.00
18795;BME280;29610;49.022;12.114;2023-02-24T13:53:16;96444.78;;;12.42;100.00
18795;BME280;29610;49.022;12.114;2023-02-24T13:56:42;96444.22;;;12.33;100.00